createdAt,value
2019-01-19T00:02:02.464Z,39.23
2019-01-19T00:05:10.688Z,45.40
2019-01-19T00:08:21.433Z,46.53
2019-01-19T00:11:36.585Z,41.63
2019-01-19T00:14:18.406Z,42.67
2019-01-19T00:17:40.037Z,46.30
2019-01-19T00:20:35.999Z,47.57
2019-01-19T00:23:50.190Z,53.83
2019-01-19T00:27:04.168Z,52.07
2019-01-19T00:30:24.309Z,55.03
2019-01-19T00:33:32.209Z,48.73
2019-01-19T00:36:56.364Z,44.07
2019-01-19T00:40:13.279Z,40.10
2019-01-19T00:43:01.329Z,45.50
2019-01-19T00:46:15.418Z,42.10
2019-01-19T00:49:17.532Z,36.47
2019-01-19T00:52:24.566Z,34.33
2019-01-19T00:55:32.216Z,34.23
2019-01-19T00:58:46.049Z,27.47
2019-01-19T01:02:04.005Z,28.00
2019-01-19T01:05:13.236Z,26.97
2019-01-19T01:08:27.343Z,26.40
2019-01-19T01:11:08.009Z,27.07
2019-01-19T01:14:24.864Z,25.90
2019-01-19T01:17:04.242Z,25.67
2019-01-19T01:20:02.644Z,23.53
2019-01-19T01:22:55.495Z,24.03
2019-01-19T01:25:55.190Z,26.43
2019-01-19T01:29:13.014Z,24.33
2019-01-19T01:32:13.013Z,24.40
2019-01-19T01:34:59.303Z,24.57
2019-01-19T01:37:58.538Z,25.53
2019-01-19T01:41:25.981Z,24.53
2019-01-19T01:44:32.249Z,23.93
2019-01-19T01:48:00.441Z,24.93
2019-01-19T01:51:28.973Z,25.77
2019-01-19T01:54:51.586Z,23.13
2019-01-19T01:57:55.117Z,22.77
2019-01-19T02:00:41.142Z,26.03
2019-01-19T02:03:51.538Z,22.43
2019-01-19T02:06:34.394Z,23.20
2019-01-19T02:09:34.447Z,24.37
2019-01-19T02:12:43.411Z,23.37
2019-01-19T02:15:46.516Z,22.87
2019-01-19T02:18:44.358Z,22.00
2019-01-19T02:21:46.419Z,19.63
2019-01-19T02:24:58.309Z,18.37
2019-01-19T02:27:58.466Z,17.70
2019-01-19T02:31:04.965Z,18.37
2019-01-19T02:34:10.902Z,18.00
2019-01-19T02:37:21.202Z,16.97
2019-01-19T02:40:19.406Z,16.70
2019-01-19T02:43:09.772Z,16.27
2019-01-19T02:46:23.720Z,15.70
2019-01-19T02:49:47.576Z,15.83
2019-01-19T02:53:14.937Z,15.27
2019-01-19T02:56:44.930Z,15.17
2019-01-19T02:59:21.760Z,15.00
2019-01-19T03:02:30.362Z,14.90
2019-01-19T03:05:23.016Z,13.60
2019-01-19T03:08:32.850Z,13.00
2019-01-19T03:11:51.606Z,13.87
2019-01-19T03:14:44.676Z,14.17
2019-01-19T03:17:56.840Z,14.30
2019-01-19T03:21:27.404Z,15.20
2019-01-19T03:24:40.348Z,14.27
2019-01-19T03:27:40.835Z,14.77
2019-01-19T03:30:37.092Z,14.53
2019-01-19T03:33:57.968Z,15.63
2019-01-19T03:37:03.725Z,16.70
2019-01-19T03:40:17.631Z,16.07
2019-01-19T03:43:22.019Z,17.23
2019-01-19T03:46:20.998Z,16.33
2019-01-19T03:49:23.044Z,15.57
2019-01-19T03:52:19.893Z,15.50
2019-01-19T03:55:06.343Z,16.17
2019-01-19T03:57:49.176Z,15.83
2019-01-19T04:01:07.177Z,15.37
2019-01-19T04:04:26.566Z,15.53
2019-01-19T04:07:21.287Z,13.43
2019-01-19T04:10:29.443Z,12.83
2019-01-19T04:13:33.315Z,14.10
2019-01-19T04:16:48.675Z,14.33
2019-01-19T04:19:45.826Z,14.47
2019-01-19T04:22:57.603Z,14.43
2019-01-19T04:25:55.829Z,14.83
2019-01-19T04:28:27.760Z,15.03
2019-01-19T04:30:58.816Z,15.83
2019-01-19T04:33:29.988Z,15.77
2019-01-19T04:36:01.198Z,15.57
2019-01-19T04:38:33.715Z,17.97
2019-01-19T04:41:05.046Z,23.10
2019-01-19T04:43:36.264Z,25.93
2019-01-19T04:46:07.381Z,24.43
2019-01-19T04:48:38.714Z,25.27
2019-01-19T04:51:09.792Z,26.10
2019-01-19T04:53:41.100Z,25.40
2019-01-19T04:56:12.196Z,24.27
2019-01-19T04:58:54.538Z,26.57
2019-01-19T05:01:25.649Z,27.20
2019-01-19T05:03:56.731Z,27.37
2019-01-19T05:06:30.621Z,28.87
2019-01-19T05:09:00.469Z,28.23
2019-01-19T05:11:32.992Z,30.07
2019-01-19T05:14:04.238Z,26.57
2019-01-19T05:16:35.334Z,27.13
2019-01-19T05:19:06.357Z,24.83
2019-01-19T05:21:37.485Z,26.10
2019-01-19T05:24:08.540Z,27.87
2019-01-19T05:26:39.601Z,28.10
2019-01-19T05:29:10.656Z,28.27
2019-01-19T05:31:41.721Z,27.87
2019-01-19T05:34:12.826Z,28.50
2019-01-19T05:36:43.893Z,30.33
2019-01-19T05:39:14.993Z,29.63
2019-01-19T05:41:46.126Z,29.00
2019-01-19T05:44:17.164Z,33.67
2019-01-19T05:46:48.259Z,30.07
2019-01-19T05:49:19.342Z,29.67
2019-01-19T05:51:50.442Z,30.40
2019-01-19T05:54:21.551Z,31.77
2019-01-19T05:56:52.595Z,30.90
2019-01-19T05:59:23.658Z,31.30
2019-01-19T06:01:54.728Z,30.00
2019-01-19T06:04:25.985Z,28.43
2019-01-19T06:06:57.064Z,27.90
2019-01-19T06:09:28.149Z,30.87
2019-01-19T06:12:10.816Z,31.13
2019-01-19T06:14:41.860Z,31.47
2019-01-19T06:17:13.046Z,32.37
2019-01-19T06:19:44.471Z,33.63
2019-01-19T06:22:15.670Z,31.57
2019-01-19T06:24:46.691Z,30.87
2019-01-19T06:27:17.802Z,30.50
2019-01-19T06:29:48.850Z,32.77
2019-01-19T06:32:19.949Z,36.73
2019-01-19T06:34:50.979Z,35.23
2019-01-19T06:37:22.076Z,42.37
2019-01-19T06:39:53.165Z,43.90
2019-01-19T06:42:24.285Z,40.57
2019-01-19T06:44:55.372Z,40.27
2019-01-19T06:47:26.419Z,39.63
2019-01-19T06:49:57.490Z,39.00
2019-01-19T06:52:28.582Z,44.83
2019-01-19T06:54:59.706Z,37.63
2019-01-19T06:57:30.913Z,40.67
2019-01-19T07:00:02.016Z,42.83
2019-01-19T07:02:33.059Z,42.43
2019-01-19T07:05:04.931Z,42.47
2019-01-19T07:07:36.017Z,44.03
2019-01-19T07:10:11.419Z,48.43
2019-01-19T07:12:42.475Z,45.00
2019-01-19T07:15:14.359Z,45.83
2019-01-19T07:17:45.444Z,44.73
2019-01-19T07:20:19.221Z,44.40
2019-01-19T07:22:50.377Z,44.47
2019-01-19T07:25:22.485Z,46.80
2019-01-19T07:27:55.279Z,48.83
2019-01-19T07:30:26.812Z,39.03
2019-01-19T07:32:58.067Z,37.43
2019-01-19T07:35:29.240Z,32.50
2019-01-19T07:38:00.340Z,33.23
2019-01-19T07:40:31.504Z,32.13
2019-01-19T07:43:07.321Z,33.93
2019-01-19T07:45:38.560Z,35.23
2019-01-19T07:48:09.864Z,35.80
2019-01-19T07:50:41.764Z,34.63
2019-01-19T07:53:14.162Z,31.83
2019-01-19T07:55:45.593Z,31.63
2019-01-19T07:58:17.505Z,31.33
2019-01-19T08:00:48.774Z,34.30
2019-01-19T08:03:20.033Z,41.83
2019-01-19T08:05:51.170Z,31.30
2019-01-19T08:08:22.245Z,29.67
2019-01-19T08:10:53.270Z,31.57
2019-01-19T08:13:24.450Z,34.60
2019-01-19T08:15:55.544Z,40.40
2019-01-19T08:18:26.714Z,38.00
2019-01-19T08:20:57.872Z,39.13
2019-01-19T08:23:29.346Z,39.50
2019-01-19T08:26:01.753Z,43.87
2019-01-19T08:28:33.302Z,46.30
2019-01-19T08:31:04.642Z,50.37
2019-01-19T08:33:35.780Z,58.77
2019-01-19T08:36:07.296Z,68.70
2019-01-19T08:38:38.367Z,71.70
2019-01-19T08:41:09.514Z,71.73
2019-01-19T08:43:44.692Z,65.87
2019-01-19T08:46:15.908Z,58.17
2019-01-19T08:48:47.034Z,55.83
2019-01-19T08:51:18.172Z,52.13
2019-01-19T08:53:49.386Z,49.27
2019-01-19T08:56:20.604Z,44.63
2019-01-19T08:58:51.812Z,45.50
2019-01-19T09:01:22.997Z,40.80
2019-01-19T09:03:54.216Z,43.57
2019-01-19T09:06:25.568Z,38.67
2019-01-19T09:08:56.811Z,39.67
2019-01-19T09:11:27.940Z,37.90
2019-01-19T09:13:59.238Z,36.13
2019-01-19T09:16:30.624Z,33.13
2019-01-19T09:19:02.095Z,31.87
2019-01-19T09:21:33.791Z,43.80
2019-01-19T09:24:12.698Z,34.30
2019-01-19T09:26:43.956Z,69.23
2019-01-19T09:29:15.337Z,42.13
2019-01-19T09:31:46.699Z,50.87
2019-01-19T09:34:18.057Z,35.77
2019-01-19T09:36:49.416Z,37.00
2019-01-19T09:39:21.405Z,33.57
2019-01-19T09:41:52.653Z,32.87
2019-01-19T09:44:23.890Z,34.40
2019-01-19T09:46:55.598Z,34.57
2019-01-19T09:49:26.773Z,34.00
2019-01-19T09:52:21.289Z,35.50
2019-01-19T09:54:54.756Z,36.00
2019-01-19T09:57:26.149Z,45.63
2019-01-19T09:59:57.409Z,37.83
2019-01-19T10:02:28.519Z,35.07
2019-01-19T10:04:59.851Z,35.87
2019-01-19T10:07:31.332Z,34.50
2019-01-19T10:10:05.255Z,35.47
2019-01-19T10:12:36.430Z,38.73
2019-01-19T10:15:09.550Z,40.60
2019-01-19T10:17:41.106Z,36.17
2019-01-19T10:20:24.468Z,24.67
2019-01-19T10:22:58.677Z,26.50
2019-01-19T10:25:51.076Z,27.90
2019-01-19T10:28:44.551Z,21.90
2019-01-19T10:31:16.015Z,21.47
2019-01-19T10:33:47.177Z,21.97
2019-01-19T10:36:18.869Z,25.90
2019-01-19T10:38:50.064Z,21.50
2019-01-19T10:41:21.297Z,22.77
2019-01-19T10:43:52.507Z,20.87
2019-01-19T10:46:23.873Z,25.27
2019-01-19T10:48:55.039Z,32.27
2019-01-19T10:51:26.282Z,30.57
2019-01-19T10:53:57.579Z,25.27
2019-01-19T10:56:29.012Z,21.70
2019-01-19T10:59:01.926Z,26.93
2019-01-19T11:01:33.262Z,27.47
2019-01-19T11:04:04.850Z,22.90
2019-01-19T11:06:36.059Z,26.67
2019-01-19T11:09:08.279Z,25.17
2019-01-19T11:11:39.522Z,25.20
2019-01-19T11:14:10.639Z,23.63
2019-01-19T11:16:41.987Z,23.70
2019-01-19T11:19:13.121Z,20.70
2019-01-19T11:21:44.528Z,22.67
2019-01-19T11:24:15.807Z,19.83
2019-01-19T11:26:47.074Z,19.30
2019-01-19T11:29:18.283Z,17.97
2019-01-19T11:31:49.555Z,32.63
2019-01-19T11:34:20.598Z,62.23
2019-01-19T11:36:51.731Z,25.03
2019-01-19T11:39:22.942Z,36.70
2019-01-19T11:41:54.186Z,20.07
2019-01-19T11:44:25.456Z,15.77
2019-01-19T11:46:56.583Z,12.93
2019-01-19T11:49:27.837Z,15.93
2019-01-19T11:51:58.996Z,15.13
2019-01-19T11:54:30.492Z,21.63
2019-01-19T11:57:01.882Z,18.13
2019-01-19T11:59:33.537Z,9.07
2019-01-19T12:02:04.838Z,8.37
2019-01-19T12:04:36.232Z,15.93
2019-01-19T12:07:07.778Z,25.83
2019-01-19T12:09:39.020Z,19.40
2019-01-19T12:12:10.885Z,32.53
2019-01-19T12:14:43.104Z,17.50
2019-01-19T12:17:14.565Z,24.23
2019-01-19T12:19:46.034Z,22.23
2019-01-19T12:22:17.643Z,19.53
2019-01-19T12:24:48.852Z,25.67
2019-01-19T12:27:20.401Z,23.60
2019-01-19T12:29:51.615Z,24.30
2019-01-19T12:32:22.874Z,24.77
2019-01-19T12:34:56.206Z,21.23
2019-01-19T12:37:27.559Z,20.07
2019-01-19T12:39:59.033Z,20.87
2019-01-19T12:42:31.307Z,14.17
2019-01-19T12:45:02.872Z,13.10
2019-01-19T12:47:34.262Z,11.77
2019-01-19T12:50:06.790Z,12.67
2019-01-19T12:52:40.262Z,15.07
2019-01-19T12:55:12.094Z,15.83
2019-01-19T12:57:43.439Z,18.67
2019-01-19T13:00:23.522Z,17.80
2019-01-19T13:02:55.421Z,13.67
2019-01-19T13:05:30.518Z,13.77
2019-01-19T13:08:01.725Z,22.07
2019-01-19T13:10:46.189Z,12.50
2019-01-19T13:13:30.200Z,57.37
2019-01-19T13:16:27.182Z,20.20
2019-01-19T13:19:48.259Z,25.97
2019-01-19T13:22:59.514Z,33.93
2019-01-19T13:26:19.029Z,45.17
2019-01-19T13:29:42.104Z,23.43
2019-01-19T13:32:41.114Z,15.47
2019-01-19T13:36:12.021Z,11.87
2019-01-19T13:39:08.463Z,14.33
2019-01-19T13:42:21.973Z,12.27
2019-01-19T13:45:39.356Z,13.20
2019-01-19T13:48:57.354Z,15.73
2019-01-19T13:51:48.745Z,17.90
2019-01-19T13:55:20.013Z,23.60
2019-01-19T13:58:09.431Z,26.40
2019-01-19T14:01:33.598Z,28.43
2019-01-19T14:04:24.583Z,40.37
2019-01-19T14:07:22.462Z,52.07
2019-01-19T14:10:21.471Z,49.90
2019-01-19T14:13:33.769Z,43.90
2019-01-19T14:16:31.311Z,40.33
2019-01-19T14:19:40.171Z,36.57
2019-01-19T14:22:38.795Z,36.63
2019-01-19T14:25:48.052Z,41.20
2019-01-19T14:29:09.450Z,39.90
2019-01-19T14:31:51.350Z,42.53
2019-01-19T14:34:49.603Z,49.13
2019-01-19T14:38:10.206Z,45.87
2019-01-19T14:41:16.230Z,51.70
2019-01-19T14:44:36.165Z,50.97
2019-01-19T14:47:24.860Z,52.97
2019-01-19T14:51:00.411Z,55.00
2019-01-19T14:54:16.170Z,54.03
2019-01-19T14:57:19.796Z,59.97
2019-01-19T15:00:20.425Z,74.20
2019-01-19T15:03:51.277Z,80.37
2019-01-19T15:07:35.526Z,72.83
2019-01-19T15:10:58.294Z,59.03
2019-01-19T15:14:03.430Z,53.83
2019-01-19T15:17:15.303Z,44.97
2019-01-19T15:20:13.586Z,43.87
2019-01-19T15:23:11.130Z,46.30
2019-01-19T15:26:28.681Z,42.27
2019-01-19T15:29:36.941Z,39.27
2019-01-19T15:32:34.208Z,42.43
2019-01-19T15:35:45.332Z,40.37
2019-01-19T15:38:39.828Z,36.97
2019-01-19T15:42:03.232Z,32.30
2019-01-19T15:45:11.086Z,28.57
2019-01-19T15:48:50.386Z,31.43
2019-01-19T15:52:07.024Z,30.87
2019-01-19T15:55:38.273Z,26.27
2019-01-19T15:58:45.251Z,27.20
2019-01-19T16:02:11.936Z,26.20
2019-01-19T16:05:25.593Z,29.20
2019-01-19T16:08:22.294Z,31.70
2019-01-19T16:11:55.531Z,26.03
2019-01-19T16:14:53.730Z,24.40
2019-01-19T16:17:52.047Z,28.27
2019-01-19T16:21:31.854Z,27.50
2019-01-19T16:24:31.176Z,27.37
2019-01-19T16:27:37.577Z,27.93
2019-01-19T16:30:48.370Z,27.20
2019-01-19T16:33:35.371Z,23.87
2019-01-19T16:36:59.742Z,30.00
2019-01-19T16:40:27.866Z,28.73
2019-01-19T16:43:33.573Z,31.00
2019-01-19T16:46:48.238Z,32.60
2019-01-19T16:49:38.729Z,29.20
2019-01-19T16:52:57.658Z,41.67
2019-01-19T16:56:24.965Z,37.27
2019-01-19T16:59:19.150Z,70.03
2019-01-19T17:02:00.665Z,56.30
2019-01-19T17:05:04.874Z,57.20
2019-01-19T17:08:05.709Z,48.87
2019-01-19T17:11:14.872Z,49.27
2019-01-19T17:14:25.688Z,47.37
2019-01-19T17:17:56.819Z,44.07
2019-01-19T17:21:08.132Z,38.90
2019-01-19T17:24:20.417Z,36.20
2019-01-19T17:27:31.570Z,31.43
2019-01-19T17:30:58.867Z,34.63
2019-01-19T17:34:06.897Z,44.70
2019-01-19T17:37:00.449Z,47.00
2019-01-19T17:40:09.983Z,58.90
2019-01-19T17:43:17.434Z,66.80
2019-01-19T17:46:35.440Z,66.87
2019-01-19T17:49:41.131Z,80.13
2019-01-19T17:52:36.452Z,90.47
2019-01-19T17:55:30.175Z,98.37
2019-01-19T17:58:53.664Z,88.03
2019-01-19T18:02:24.031Z,77.67
2019-01-19T18:05:27.252Z,65.73
2019-01-19T18:08:27.678Z,53.87
2019-01-19T18:11:42.380Z,52.67
2019-01-19T18:15:07.483Z,50.10
2019-01-19T18:18:34.516Z,58.77
2019-01-19T18:21:55.398Z,68.27
2019-01-19T18:25:07.764Z,59.70
2019-01-19T18:28:22.377Z,56.97
2019-01-19T18:31:35.032Z,62.30
2019-01-19T18:34:45.147Z,63.53
2019-01-19T18:37:58.322Z,52.97
2019-01-19T18:41:28.647Z,52.47
2019-01-19T18:44:37.695Z,46.00
2019-01-19T18:47:55.216Z,43.67
2019-01-19T18:51:08.312Z,42.93
2019-01-19T18:54:23.148Z,42.07
2019-01-19T18:57:40.874Z,39.17
2019-01-19T19:00:57.870Z,41.50
2019-01-19T19:04:15.726Z,34.50
2019-01-19T19:07:16.332Z,39.50
2019-01-19T19:10:28.573Z,40.43
2019-01-19T19:13:26.163Z,39.43
2019-01-19T19:16:53.986Z,39.70
2019-01-19T19:19:46.315Z,38.03
2019-01-19T19:22:58.197Z,39.30
2019-01-19T19:26:02.634Z,40.43
2019-01-19T19:29:09.219Z,36.73
2019-01-19T19:32:20.017Z,35.10
2019-01-19T19:35:23.022Z,35.37
2019-01-19T19:38:50.161Z,34.33
2019-01-19T19:42:11.632Z,40.17
2019-01-19T19:45:28.325Z,36.43
2019-01-19T19:48:43.779Z,38.27
2019-01-19T19:51:59.240Z,41.70
2019-01-19T19:54:32.010Z,42.37
2019-01-19T19:57:06.569Z,42.17
2019-01-19T19:59:38.920Z,40.87
2019-01-19T20:02:13.389Z,44.53
2019-01-19T20:04:47.427Z,40.10
2019-01-19T20:07:22.722Z,44.73
2019-01-19T20:09:58.237Z,43.83
2019-01-19T20:12:29.530Z,45.07
2019-01-19T20:15:00.598Z,48.23
2019-01-19T20:17:31.735Z,45.07
2019-01-19T20:20:02.862Z,47.23
2019-01-19T20:22:34.349Z,45.60
2019-01-19T20:25:05.593Z,45.57
2019-01-19T20:27:36.712Z,47.20
2019-01-19T20:30:09.974Z,43.07
2019-01-19T20:32:41.195Z,42.93
2019-01-19T20:35:12.356Z,48.87
2019-01-19T20:37:43.607Z,47.50
2019-01-19T20:40:14.828Z,54.27
2019-01-19T20:42:45.945Z,52.30
2019-01-19T20:45:17.229Z,48.57
2019-01-19T20:47:48.363Z,52.10
2019-01-19T20:50:19.542Z,54.00
2019-01-19T20:52:50.756Z,53.00
2019-01-19T20:55:22.135Z,54.47
2019-01-19T20:57:53.344Z,47.23
2019-01-19T21:00:24.855Z,49.80
2019-01-19T21:02:56.174Z,55.03
2019-01-19T21:05:27.357Z,54.53
2019-01-19T21:07:59.155Z,50.47
2019-01-19T21:10:31.952Z,52.77
2019-01-19T21:13:03.188Z,51.90
2019-01-19T21:15:34.453Z,58.47
2019-01-19T21:18:05.774Z,53.80
2019-01-19T21:20:37.177Z,55.07
2019-01-19T21:23:08.594Z,60.17
2019-01-19T21:25:39.780Z,65.13
2019-01-19T21:28:10.887Z,63.10
2019-01-19T21:30:42.281Z,62.80
2019-01-19T21:33:13.777Z,66.47
2019-01-19T21:35:45.221Z,60.63
2019-01-19T21:38:16.491Z,67.87
2019-01-19T21:40:47.623Z,68.43
2019-01-19T21:43:18.964Z,73.00
2019-01-19T21:45:50.258Z,66.87
2019-01-19T21:48:21.462Z,70.00
2019-01-19T21:50:52.639Z,66.43
2019-01-19T21:53:24.117Z,66.67
2019-01-19T21:55:55.382Z,59.47
2019-01-19T21:58:26.699Z,63.33
2019-01-19T22:00:57.873Z,66.23
2019-01-19T22:03:29.121Z,66.77
2019-01-19T22:06:00.474Z,67.17
2019-01-19T22:08:31.783Z,59.50
2019-01-19T22:11:02.949Z,61.73
2019-01-19T22:13:34.109Z,65.33
2019-01-19T22:16:05.351Z,65.83
2019-01-19T22:18:36.488Z,59.30
2019-01-19T22:21:07.584Z,66.47
2019-01-19T22:23:38.843Z,62.47
2019-01-19T22:26:12.139Z,57.20
2019-01-19T22:28:43.408Z,64.33
2019-01-19T22:31:14.749Z,59.50
2019-01-19T22:33:46.286Z,57.23
2019-01-19T22:36:17.452Z,54.80
2019-01-19T22:38:48.783Z,48.73
2019-01-19T22:41:21.404Z,56.23
2019-01-19T22:43:52.838Z,49.17
2019-01-19T22:46:32.192Z,56.73
2019-01-19T22:49:06.721Z,49.47
2019-01-19T22:51:38.119Z,48.23
2019-01-19T22:54:09.438Z,48.87
2019-01-19T22:56:40.901Z,50.03
2019-01-19T22:59:12.070Z,50.40
2019-01-19T23:01:55.843Z,54.90
2019-01-19T23:04:27.271Z,51.90
2019-01-19T23:06:58.552Z,59.33
2019-01-19T23:09:29.867Z,51.03
2019-01-19T23:12:01.593Z,48.63
2019-01-19T23:14:33.617Z,45.40
2019-01-19T23:17:04.926Z,52.90
2019-01-19T23:19:36.263Z,62.47
2019-01-19T23:22:07.515Z,69.07
2019-01-19T23:24:38.792Z,59.27
2019-01-19T23:27:10.668Z,54.23
2019-01-19T23:29:42.056Z,56.57
2019-01-19T23:32:13.402Z,51.37
2019-01-19T23:34:44.628Z,52.03
2019-01-19T23:37:15.809Z,49.07
2019-01-19T23:40:11.000Z,48.30
2019-01-19T23:42:47.060Z,49.70
2019-01-19T23:45:15.127Z,49.60
2019-01-19T23:47:46.220Z,50.20
2019-01-19T23:50:17.326Z,47.03
2019-01-19T23:52:48.452Z,48.30
2019-01-19T23:55:19.680Z,50.80
2019-01-19T23:57:50.859Z,51.03
